createdAt,value
2018-06-20T00:00:07.913Z,15.00
2018-06-20T00:02:36.372Z,15.00
2018-06-20T00:05:04.852Z,14.90
2018-06-20T00:07:33.261Z,14.90
2018-06-20T00:10:01.628Z,14.80
2018-06-20T00:12:30.073Z,14.80
2018-06-20T00:14:58.468Z,14.80
2018-06-20T00:17:26.876Z,14.80
2018-06-20T00:19:55.259Z,14.70
2018-06-20T00:22:23.753Z,14.70
2018-06-20T00:24:52.165Z,14.70
2018-06-20T00:27:20.576Z,14.70
2018-06-20T00:29:49.042Z,14.70
2018-06-20T00:32:17.460Z,14.70
2018-06-20T00:34:46.172Z,14.70
2018-06-20T00:37:14.590Z,14.70
2018-06-20T00:39:42.984Z,14.70
2018-06-20T00:42:11.364Z,14.70
2018-06-20T00:44:39.776Z,14.70
2018-06-20T00:47:08.209Z,14.70
2018-06-20T00:49:36.612Z,14.70
2018-06-20T00:52:04.976Z,14.70
2018-06-20T00:54:33.410Z,14.70
2018-06-20T00:57:02.824Z,14.60
2018-06-20T00:59:31.180Z,14.60
2018-06-20T01:01:59.593Z,14.50
2018-06-20T01:04:27.992Z,14.50
2018-06-20T01:06:56.360Z,14.50
2018-06-20T01:09:24.782Z,14.40
2018-06-20T01:11:53.295Z,14.40
2018-06-20T01:14:21.600Z,14.40
2018-06-20T01:16:50.028Z,14.40
2018-06-20T01:19:18.402Z,14.40
2018-06-20T01:21:46.792Z,14.50
2018-06-20T01:24:15.145Z,14.40
2018-06-20T01:26:43.580Z,14.40
2018-06-20T01:29:11.940Z,14.40
2018-06-20T01:31:40.324Z,14.50
2018-06-20T01:34:08.769Z,14.40
2018-06-20T01:36:37.129Z,14.40
2018-06-20T01:39:08.053Z,14.40
2018-06-20T01:41:36.409Z,14.40
2018-06-20T01:44:05.008Z,14.50
2018-06-20T01:46:33.473Z,14.50
2018-06-20T01:49:01.868Z,14.60
2018-06-20T01:51:30.237Z,14.60
2018-06-20T01:53:58.689Z,14.60
2018-06-20T01:56:27.156Z,14.50
2018-06-20T01:58:55.516Z,14.50
2018-06-20T02:01:23.985Z,14.50
2018-06-20T02:03:52.392Z,14.50
2018-06-20T02:06:20.779Z,14.50
2018-06-20T02:08:52.181Z,14.50
2018-06-20T02:11:20.576Z,14.40
2018-06-20T02:13:48.938Z,14.40
2018-06-20T02:16:17.354Z,14.40
2018-06-20T02:18:45.693Z,14.30
2018-06-20T02:21:14.108Z,14.30
2018-06-20T02:23:42.520Z,14.30
2018-06-20T02:26:10.883Z,14.30
2018-06-20T02:28:39.344Z,14.30
2018-06-20T02:31:07.723Z,14.20
2018-06-20T02:33:36.215Z,14.30
2018-06-20T02:36:08.962Z,14.30
2018-06-20T02:38:37.384Z,14.30
2018-06-20T02:41:05.854Z,14.30
2018-06-20T02:43:34.228Z,14.30
2018-06-20T02:46:02.649Z,14.30
2018-06-20T02:48:31.047Z,14.30
2018-06-20T02:50:59.477Z,14.30
2018-06-20T02:55:55.977Z,14.30
2018-06-20T02:58:24.385Z,14.30
2018-06-20T03:00:52.724Z,14.30
2018-06-20T03:03:21.141Z,14.30
2018-06-20T03:05:49.505Z,14.30
2018-06-20T03:08:17.932Z,14.30
2018-06-20T03:10:47.228Z,14.30
2018-06-20T03:13:15.599Z,14.30
2018-06-20T03:15:43.999Z,14.40
2018-06-20T03:18:12.400Z,14.40
2018-06-20T03:20:40.773Z,14.40
2018-06-20T03:23:09.147Z,14.50
2018-06-20T03:25:37.628Z,14.50
2018-06-20T03:28:06.038Z,14.50
2018-06-20T03:30:34.385Z,14.50
2018-06-20T03:33:02.781Z,14.50
2018-06-20T03:35:31.184Z,14.60
2018-06-20T03:37:59.581Z,14.60
2018-06-20T03:40:28.142Z,14.60
2018-06-20T03:42:56.520Z,14.70
2018-06-20T03:45:24.880Z,15.00
2018-06-20T03:47:53.367Z,15.50
2018-06-20T03:50:21.988Z,16.30
2018-06-20T03:55:18.885Z,17.80
2018-06-20T03:57:47.460Z,18.40
2018-06-20T04:00:15.817Z,18.90
2018-06-20T04:02:44.577Z,19.30
2018-06-20T04:05:13.182Z,19.90
2018-06-20T04:07:42.192Z,20.40
2018-06-20T04:10:18.665Z,20.80
2018-06-20T04:12:47.390Z,21.00
2018-06-20T04:15:15.783Z,21.40
2018-06-20T04:17:44.257Z,21.80
2018-06-20T04:20:12.644Z,22.10
2018-06-20T04:22:41.149Z,22.20
2018-06-20T04:25:09.611Z,22.20
2018-06-20T04:27:38.013Z,22.10
2018-06-20T04:30:06.412Z,22.30
2018-06-20T04:32:34.957Z,22.80
2018-06-20T04:35:03.393Z,23.40
2018-06-20T04:37:31.893Z,23.50
2018-06-20T04:40:00.266Z,23.20
2018-06-20T04:42:28.731Z,23.50
2018-06-20T04:44:57.075Z,23.70
2018-06-20T04:47:25.520Z,23.90
2018-06-20T04:52:21.940Z,23.90
2018-06-20T04:54:50.384Z,24.30
2018-06-20T04:57:18.729Z,24.30
2018-06-20T04:59:48.014Z,24.50
2018-06-20T05:02:16.368Z,25.20
2018-06-20T05:04:44.715Z,25.40
2018-06-20T05:07:13.168Z,25.40
2018-06-20T05:09:41.545Z,25.20
2018-06-20T05:12:09.996Z,25.00
2018-06-20T05:14:38.361Z,25.00
2018-06-20T05:17:06.705Z,25.20
2018-06-20T05:19:35.129Z,25.20
2018-06-20T05:22:03.471Z,26.00
2018-06-20T05:24:31.931Z,25.90
2018-06-20T05:27:00.351Z,26.40
2018-06-20T05:29:28.738Z,26.40
2018-06-20T05:31:57.188Z,26.30
2018-06-20T05:34:25.596Z,25.90
2018-06-20T05:36:54.545Z,25.60
2018-06-20T05:39:22.940Z,25.50
2018-06-20T05:41:51.557Z,25.30
2018-06-20T05:44:19.848Z,25.50
2018-06-20T05:46:48.287Z,26.10
2018-06-20T05:51:45.733Z,27.10
2018-06-20T05:54:14.179Z,27.60
2018-06-20T05:56:42.593Z,27.60
2018-06-20T05:59:11.012Z,28.30
2018-06-20T06:01:39.421Z,28.20
2018-06-20T06:04:07.828Z,27.10
2018-06-20T06:06:36.278Z,26.70
2018-06-20T06:09:07.508Z,27.30
2018-06-20T06:11:36.104Z,28.20
2018-06-20T06:14:04.497Z,28.30
2018-06-20T06:16:32.951Z,27.60
2018-06-20T06:19:01.713Z,27.10
2018-06-20T06:21:33.691Z,27.20
2018-06-20T06:24:03.021Z,27.10
2018-06-20T06:26:31.660Z,27.20
2018-06-20T06:29:00.073Z,27.10
2018-06-20T06:31:28.434Z,27.90
2018-06-20T06:33:57.278Z,28.30
2018-06-20T06:36:25.680Z,28.70
2018-06-20T06:38:55.809Z,28.50
2018-06-20T06:41:24.308Z,28.50
2018-06-20T06:43:52.681Z,29.00
2018-06-20T06:46:21.073Z,28.70
2018-06-20T06:48:55.375Z,27.70
2018-06-20T06:51:23.775Z,27.40
2018-06-20T06:53:52.144Z,27.30
2018-06-20T06:56:20.540Z,27.60
2018-06-20T06:58:48.972Z,27.60
2018-06-20T07:01:20.506Z,28.00
2018-06-20T07:03:49.337Z,28.40
2018-06-20T07:06:18.318Z,28.60
2018-06-20T07:08:46.808Z,28.60
2018-06-20T07:11:15.256Z,28.80
2018-06-20T07:13:43.664Z,28.70
2018-06-20T07:16:12.348Z,28.30
2018-06-20T07:21:08.883Z,27.60
2018-06-20T07:23:37.297Z,26.90
2018-06-20T07:26:05.728Z,26.70
2018-06-20T07:28:34.120Z,27.00
2018-06-20T07:31:02.512Z,27.40
2018-06-20T07:33:30.911Z,27.80
2018-06-20T07:36:00.146Z,27.90
2018-06-20T07:38:28.726Z,27.70
2018-06-20T07:40:58.807Z,27.20
2018-06-20T07:43:27.384Z,27.00
2018-06-20T07:45:55.837Z,26.70
2018-06-20T07:48:24.219Z,26.30
2018-06-20T07:50:52.700Z,25.70
2018-06-20T07:53:21.240Z,25.30
2018-06-20T07:55:49.871Z,25.20
2018-06-20T07:58:23.807Z,25.00
2018-06-20T08:00:57.559Z,25.10
2018-06-20T08:03:31.435Z,24.90
2018-06-20T08:06:05.098Z,24.60
2018-06-20T08:08:39.008Z,24.60
2018-06-20T08:11:12.954Z,24.30
2018-06-20T08:13:46.803Z,24.50
2018-06-20T08:16:20.563Z,24.80
2018-06-20T08:18:54.222Z,24.70
2018-06-20T08:21:23.847Z,24.60
2018-06-20T08:23:52.500Z,24.40
2018-06-20T08:26:20.961Z,24.30
2018-06-20T08:28:49.320Z,24.30
2018-06-20T08:31:18.595Z,24.40
2018-06-20T08:33:47.069Z,24.40
2018-06-20T08:36:20.117Z,24.40
2018-06-20T08:38:50.728Z,24.40
2018-06-20T08:41:19.165Z,24.40
2018-06-20T08:43:48.474Z,24.80
2018-06-20T08:46:16.872Z,25.00
2018-06-20T08:48:45.332Z,25.10
2018-06-20T08:51:13.725Z,25.10
2018-06-20T08:53:42.249Z,25.10
2018-06-20T08:56:10.672Z,25.00
2018-06-20T08:58:39.135Z,25.00
2018-06-20T09:01:14.158Z,25.40
2018-06-20T09:03:44.094Z,25.70
2018-06-20T09:06:17.652Z,25.40
2018-06-20T09:08:51.473Z,25.10
2018-06-20T09:11:25.251Z,25.00
2018-06-20T09:14:13.428Z,25.00
2018-06-20T09:16:47.134Z,24.90
2018-06-20T09:19:20.642Z,25.10
2018-06-20T09:21:49.867Z,25.10
2018-06-20T09:24:18.769Z,24.80
2018-06-20T09:26:47.141Z,24.90
2018-06-20T09:29:15.559Z,24.80
2018-06-20T09:31:43.982Z,24.80
2018-06-20T09:34:12.361Z,24.40
2018-06-20T09:36:40.758Z,24.30
2018-06-20T09:39:09.157Z,24.30
2018-06-20T09:41:37.544Z,24.10
2018-06-20T09:44:05.972Z,24.10
2018-06-20T09:46:34.359Z,24.20
2018-06-20T09:49:02.775Z,24.40
2018-06-20T09:51:31.143Z,24.60
2018-06-20T09:53:59.567Z,24.80
2018-06-20T09:56:27.946Z,24.90
2018-06-20T09:58:59.637Z,24.90
2018-06-20T10:01:33.332Z,25.20
2018-06-20T10:04:07.165Z,25.20
2018-06-20T10:09:14.424Z,25.80
2018-06-20T10:11:48.168Z,26.00
2018-06-20T10:14:16.535Z,26.00
2018-06-20T10:16:44.941Z,25.90
2018-06-20T10:19:13.372Z,25.80
2018-06-20T10:21:41.805Z,25.80
2018-06-20T10:24:10.185Z,26.00
2018-06-20T10:26:38.545Z,26.10
2018-06-20T10:29:07.040Z,26.20
2018-06-20T10:31:35.460Z,26.20
2018-06-20T10:34:03.849Z,26.20
2018-06-20T10:36:32.264Z,26.20
2018-06-20T10:39:00.652Z,26.30
2018-06-20T10:41:33.264Z,26.40
2018-06-20T10:44:05.477Z,26.00
2018-06-20T10:46:39.140Z,26.10
2018-06-20T10:49:07.544Z,26.20
2018-06-20T10:51:35.949Z,26.00
2018-06-20T10:54:04.388Z,26.00
2018-06-20T10:56:38.148Z,25.90
2018-06-20T10:59:11.919Z,26.00
2018-06-20T11:01:45.714Z,26.20
2018-06-20T11:04:19.448Z,26.30
2018-06-20T11:06:53.221Z,26.20
2018-06-20T11:09:27.196Z,26.30
2018-06-20T11:12:00.924Z,26.40
2018-06-20T11:14:29.329Z,26.40
2018-06-20T11:16:57.685Z,26.40
2018-06-20T11:19:26.152Z,26.50
2018-06-20T11:21:54.568Z,26.70
2018-06-20T11:24:23.063Z,26.70
2018-06-20T11:26:51.453Z,26.80
2018-06-20T11:29:20.871Z,27.00
2018-06-20T11:31:49.315Z,27.10
2018-06-20T11:34:17.681Z,26.90
2018-06-20T11:36:46.074Z,26.50
2018-06-20T11:39:14.494Z,26.40
2018-06-20T11:41:43.029Z,26.50
2018-06-20T11:44:11.441Z,26.50
2018-06-20T11:46:45.126Z,26.50
2018-06-20T11:49:13.548Z,26.60
2018-06-20T11:51:43.627Z,26.80
2018-06-20T11:54:12.365Z,26.80
2018-06-20T11:56:40.790Z,27.00
2018-06-20T11:59:14.548Z,27.00
2018-06-20T12:01:48.245Z,26.80
2018-06-20T12:04:21.968Z,26.90
2018-06-20T12:06:56.304Z,26.90
2018-06-20T12:09:30.033Z,27.00
2018-06-20T12:12:03.662Z,27.10
2018-06-20T12:14:37.432Z,26.90
2018-06-20T12:17:05.103Z,26.90
2018-06-20T12:19:38.812Z,27.10
2018-06-20T12:22:12.635Z,27.20
2018-06-20T12:24:46.329Z,27.10
2018-06-20T12:27:20.188Z,26.90
2018-06-20T12:29:54.056Z,26.80
2018-06-20T12:32:27.796Z,26.80
2018-06-20T12:35:01.515Z,26.70
2018-06-20T12:37:35.144Z,26.40
2018-06-20T12:40:09.715Z,26.20
2018-06-20T12:42:43.361Z,26.20
2018-06-20T12:45:14.432Z,26.30
2018-06-20T12:47:45.775Z,26.20
2018-06-20T12:50:21.588Z,26.10
2018-06-20T12:52:50.353Z,25.90
2018-06-20T12:55:18.797Z,25.90
2018-06-20T12:57:47.152Z,26.00
2018-06-20T13:00:15.769Z,26.10
2018-06-20T13:02:44.382Z,26.30
2018-06-20T13:05:12.781Z,26.50
2018-06-20T13:07:41.161Z,26.60
2018-06-20T13:10:09.662Z,26.60
2018-06-20T13:12:38.085Z,27.00
2018-06-20T13:15:06.476Z,27.20
2018-06-20T13:17:34.904Z,27.30
2018-06-20T13:20:03.559Z,27.30
2018-06-20T13:22:31.910Z,27.30
2018-06-20T13:25:00.293Z,26.90
2018-06-20T13:27:34.270Z,26.80
2018-06-20T13:30:10.242Z,26.70
2018-06-20T13:32:44.065Z,26.70
2018-06-20T13:35:17.966Z,26.70
2018-06-20T13:37:51.868Z,26.90
2018-06-20T13:41:25.297Z,27.00
2018-06-20T13:43:58.908Z,27.00
2018-06-20T13:46:32.702Z,27.00
2018-06-20T13:49:01.063Z,27.00
2018-06-20T13:51:29.529Z,27.00
2018-06-20T13:53:57.960Z,27.20
2018-06-20T13:56:26.332Z,27.10
2018-06-20T13:58:54.695Z,27.00
2018-06-20T14:01:23.152Z,27.00
2018-06-20T14:03:53.032Z,27.00
2018-06-20T14:06:21.484Z,27.00
2018-06-20T14:08:49.959Z,27.10
2018-06-20T14:11:18.449Z,27.10
2018-06-20T14:13:46.933Z,26.90
2018-06-20T14:16:15.292Z,26.70
2018-06-20T14:18:43.711Z,26.60
2018-06-20T14:21:17.544Z,26.70
2018-06-20T14:23:45.945Z,26.70
2018-06-20T14:26:14.336Z,26.80
2018-06-20T14:28:42.784Z,26.80
2018-06-20T14:31:16.632Z,26.60
2018-06-20T14:33:50.307Z,26.60
2018-06-20T14:36:24.028Z,26.70
2018-06-20T14:38:57.681Z,26.80
2018-06-20T14:41:26.204Z,27.00
2018-06-20T14:44:00.358Z,26.90
2018-06-20T14:46:30.668Z,26.70
2018-06-20T14:48:59.028Z,26.70
2018-06-20T14:51:27.463Z,26.80
2018-06-20T14:53:55.887Z,26.90
2018-06-20T14:56:24.239Z,27.10
2018-06-20T14:58:52.738Z,27.20
2018-06-20T15:01:22.117Z,27.00
2018-06-20T15:03:50.573Z,27.00
2018-06-20T15:06:18.977Z,26.90
2018-06-20T15:08:47.384Z,26.70
2018-06-20T15:11:15.852Z,26.70
2018-06-20T15:13:44.210Z,26.70
2018-06-20T15:16:18.069Z,26.70
2018-06-20T15:18:46.544Z,26.90
2018-06-20T15:21:14.940Z,26.80
2018-06-20T15:23:43.360Z,26.70
2018-06-20T15:26:17.164Z,26.90
2018-06-20T15:28:51.042Z,27.00
2018-06-20T15:31:24.729Z,27.10
2018-06-20T15:33:58.444Z,27.20
2018-06-20T15:36:32.036Z,27.30
2018-06-20T15:39:00.455Z,27.20
2018-06-20T15:41:28.868Z,27.20
2018-06-20T15:43:57.233Z,27.10
2018-06-20T15:46:26.377Z,27.00
2018-06-20T15:48:54.806Z,27.10
2018-06-20T15:51:23.191Z,26.90
2018-06-20T15:53:52.017Z,26.90
2018-06-20T15:56:20.408Z,26.90
2018-06-20T15:58:48.776Z,26.80
2018-06-20T16:01:17.170Z,26.90
2018-06-20T16:03:45.571Z,27.00
2018-06-20T16:06:13.935Z,26.90
2018-06-20T16:08:47.615Z,27.00
2018-06-20T16:11:15.990Z,27.00
2018-06-20T16:13:44.396Z,27.10
2018-06-20T16:16:12.768Z,27.20
2018-06-20T16:18:45.404Z,27.20
2018-06-20T16:21:19.151Z,27.10
2018-06-20T16:23:52.805Z,27.10
2018-06-20T16:29:01.199Z,26.90
2018-06-20T16:31:29.592Z,27.00
2018-06-20T16:33:57.991Z,26.90
2018-06-20T16:36:26.358Z,26.90
2018-06-20T16:38:54.742Z,26.80
2018-06-20T16:41:23.233Z,26.90
2018-06-20T16:43:52.314Z,27.00
2018-06-20T16:46:20.693Z,27.00
2018-06-20T16:48:49.116Z,27.00
2018-06-20T16:51:17.556Z,26.70
2018-06-20T16:53:45.946Z,26.60
2018-06-20T16:56:14.359Z,26.50
2018-06-20T16:58:42.792Z,26.40
2018-06-20T17:01:16.548Z,26.40
2018-06-20T17:03:44.924Z,26.40
2018-06-20T17:06:13.357Z,26.40
2018-06-20T17:08:41.695Z,26.40
2018-06-20T17:11:10.151Z,26.40
2018-06-20T17:13:43.984Z,26.40
2018-06-20T17:16:17.673Z,26.30
2018-06-20T17:18:51.366Z,26.30
2018-06-20T17:21:25.210Z,26.40
2018-06-20T17:23:58.997Z,26.40
2018-06-20T17:26:27.404Z,26.40
2018-06-20T17:28:55.761Z,26.40
2018-06-20T17:31:24.219Z,26.30
2018-06-20T17:33:52.683Z,26.30
2018-06-20T17:36:21.148Z,26.20
2018-06-20T17:38:49.823Z,26.10
2018-06-20T17:41:18.205Z,26.00
2018-06-20T17:43:46.773Z,26.00
2018-06-20T17:46:15.366Z,25.90
2018-06-20T17:48:43.732Z,25.90
2018-06-20T17:51:12.224Z,25.90
2018-06-20T17:53:40.624Z,25.80
2018-06-20T17:56:09.069Z,25.80
2018-06-20T17:58:37.514Z,25.70
2018-06-20T18:01:12.382Z,25.70
2018-06-20T18:03:41.841Z,25.60
2018-06-20T18:06:15.559Z,25.60
2018-06-20T18:08:49.428Z,25.60
2018-06-20T18:11:25.172Z,25.50
2018-06-20T18:13:59.044Z,25.40
2018-06-20T18:16:33.009Z,25.30
2018-06-20T18:19:03.056Z,25.30
2018-06-20T18:21:32.412Z,25.20
2018-06-20T18:24:01.786Z,25.10
2018-06-20T18:26:30.477Z,25.00
2018-06-20T18:28:59.061Z,24.90
2018-06-20T18:31:27.524Z,24.90
2018-06-20T18:33:56.171Z,24.80
2018-06-20T18:36:25.435Z,24.80
2018-06-20T18:38:53.800Z,24.70
2018-06-20T18:41:22.758Z,24.70
2018-06-20T18:43:51.167Z,24.60
2018-06-20T18:46:19.666Z,24.60
2018-06-20T18:48:48.121Z,24.60
2018-06-20T18:51:16.637Z,24.60
2018-06-20T18:53:45.023Z,24.60
2018-06-20T18:56:13.588Z,24.60
2018-06-20T18:58:47.330Z,24.50
2018-06-20T19:01:21.080Z,24.50
2018-06-20T19:03:54.740Z,24.40
2018-06-20T19:06:28.422Z,24.30
2018-06-20T19:09:00.299Z,24.10
2018-06-20T19:11:28.726Z,24.00
2018-06-20T19:13:57.116Z,23.90
2018-06-20T19:16:25.533Z,23.80
2018-06-20T19:18:54.260Z,23.60
2018-06-20T19:21:23.005Z,23.50
2018-06-20T19:26:20.585Z,23.30
2018-06-20T19:28:49.190Z,23.20
2018-06-20T19:33:46.928Z,22.90
2018-06-20T19:36:15.322Z,22.70
2018-06-20T19:38:43.826Z,22.60
2018-06-20T19:41:12.360Z,22.50
2018-06-20T19:43:46.129Z,22.40
2018-06-20T19:46:23.352Z,22.20
2018-06-20T19:48:52.321Z,22.10
2018-06-20T19:51:20.990Z,22.00
2018-06-20T19:53:49.362Z,21.90
2018-06-20T19:56:17.912Z,21.80
2018-06-20T19:58:47.025Z,21.70
2018-06-20T20:01:15.477Z,21.60
2018-06-20T20:03:44.425Z,21.50
2018-06-20T20:06:13.088Z,21.40
2018-06-20T20:08:41.547Z,21.30
2018-06-20T20:11:10.121Z,21.20
2018-06-20T20:13:38.621Z,21.10
2018-06-20T20:16:07.009Z,21.00
2018-06-20T20:18:35.440Z,21.00
2018-06-20T20:21:03.858Z,20.90
2018-06-20T20:23:32.293Z,20.80
2018-06-20T20:26:00.748Z,20.70
2018-06-20T20:28:29.584Z,20.60
2018-06-20T20:30:58.737Z,20.50
2018-06-20T20:33:27.408Z,20.50
2018-06-20T20:35:55.851Z,20.50
2018-06-20T20:38:24.360Z,20.50
2018-06-20T20:40:53.649Z,20.40
2018-06-20T20:43:22.083Z,20.40
2018-06-20T20:45:50.458Z,20.30
2018-06-20T20:48:19.173Z,20.30
2018-06-20T20:50:47.669Z,20.30
2018-06-20T20:53:16.324Z,20.30
2018-06-20T20:55:44.768Z,20.20
2018-06-20T20:58:13.126Z,20.20
2018-06-20T21:00:41.655Z,20.20
2018-06-20T21:03:10.076Z,20.20
2018-06-20T21:05:38.556Z,20.10
2018-06-20T21:08:07.248Z,20.10
2018-06-20T21:10:35.660Z,20.10
2018-06-20T21:13:04.065Z,20.00
2018-06-20T21:15:32.570Z,20.10
2018-06-20T21:18:00.950Z,20.10
2018-06-20T21:20:29.437Z,20.00
2018-06-20T21:22:57.827Z,20.00
2018-06-20T21:25:26.180Z,19.90
2018-06-20T21:27:54.611Z,19.90
2018-06-20T21:30:24.247Z,19.80
2018-06-20T21:32:52.660Z,19.80
2018-06-20T21:35:21.470Z,19.70
2018-06-20T21:37:50.176Z,19.60
2018-06-20T21:42:48.224Z,19.60
2018-06-20T21:45:16.652Z,19.60
2018-06-20T21:47:45.064Z,19.60
2018-06-20T21:50:13.460Z,19.60
2018-06-20T21:52:41.863Z,19.50
2018-06-20T21:55:10.373Z,19.40
2018-06-20T21:57:38.818Z,19.30
2018-06-20T22:00:09.326Z,19.30
2018-06-20T22:02:37.864Z,19.20
2018-06-20T22:05:06.329Z,19.30
2018-06-20T22:07:34.806Z,19.30
2018-06-20T22:10:03.203Z,19.30
2018-06-20T22:12:31.628Z,19.20
2018-06-20T22:15:00.089Z,19.30
2018-06-20T22:17:28.848Z,19.30
2018-06-20T22:19:57.370Z,19.20
2018-06-20T22:22:25.968Z,19.10
2018-06-20T22:24:54.356Z,19.00
2018-06-20T22:27:22.920Z,19.00
2018-06-20T22:32:19.462Z,18.80
2018-06-20T22:34:47.817Z,18.80
2018-06-20T22:37:16.177Z,18.80
2018-06-20T22:39:44.680Z,18.70
2018-06-20T22:42:13.054Z,18.70
2018-06-20T22:44:41.409Z,18.70
2018-06-20T22:47:09.841Z,18.60
2018-06-20T22:49:38.208Z,18.60
2018-06-20T22:52:06.618Z,18.60
2018-06-20T22:54:35.024Z,18.50
2018-06-20T22:57:03.373Z,18.50
2018-06-20T22:59:31.733Z,18.50
2018-06-20T23:02:00.304Z,18.50
2018-06-20T23:04:28.654Z,18.50
2018-06-20T23:06:57.051Z,18.50
2018-06-20T23:09:25.836Z,18.40
2018-06-20T23:11:54.201Z,18.40
2018-06-20T23:14:22.701Z,18.30
2018-06-20T23:16:51.254Z,18.30
2018-06-20T23:19:19.665Z,18.30
2018-06-20T23:21:48.040Z,18.30
2018-06-20T23:24:16.582Z,18.30
2018-06-20T23:26:44.998Z,18.20
2018-06-20T23:29:13.369Z,18.20
2018-06-20T23:31:41.796Z,18.20
2018-06-20T23:34:10.152Z,18.20
2018-06-20T23:36:38.614Z,18.20
2018-06-20T23:39:08.526Z,18.20
2018-06-20T23:41:37.183Z,18.20
2018-06-20T23:44:05.556Z,18.30
2018-06-20T23:46:34.092Z,18.30
2018-06-20T23:49:02.463Z,18.20
2018-06-20T23:51:30.904Z,18.20
2018-06-20T23:53:59.312Z,18.20
2018-06-20T23:56:27.782Z,18.20
2018-06-20T23:58:56.997Z,18.20
